Time;durP1;ratioP1;P1;durP2;ratioP2;P2;SDS_P1;SDS_P2;PMS_P1;PMS_P2;Temp;Humidity;BMP_temperature;BMP_pressure;BME280_temperature;BME280_humidity;BME280_pressure;Samples;Min_cycle;Max_cycle;Signal;HPM_P1;HPM_P2
2021/12/31 00:00:45;;;;;;;18.92;3.75;;;13.80;99.90;;;;;;5098418;28;20515;-73
2021/12/31 00:03:10;;;;;;;24.42;3.80;;;13.80;99.90;;;;;;5118863;27;20446;-75
2021/12/31 00:05:36;;;;;;;21.27;4.07;;;13.90;99.90;;;;;;5102237;27;20439;-74
2021/12/31 00:08:02;;;;;;;22.08;4.15;;;14.00;99.90;;;;;;5113617;27;20418;-73
2021/12/31 00:10:27;;;;;;;24.60;4.20;;;14.00;99.90;;;;;;5117717;27;20502;-76
2021/12/31 00:12:56;;;;;;;24.20;4.05;;;14.10;99.90;;;;;;5114940;27;20457;-75
2021/12/31 00:15:22;;;;;;;35.42;4.85;;;14.10;99.90;;;;;;5096784;28;20453;-76
2021/12/31 00:17:48;;;;;;;33.83;4.93;;;14.10;99.90;;;;;;5113883;27;20992;-74
2021/12/31 00:20:18;;;;;;;30.33;4.60;;;14.00;99.90;;;;;;5101889;28;20417;-74
2021/12/31 00:25:10;;;;;;;24.38;4.70;;;14.00;99.90;;;;;;5117727;27;20435;-75
2021/12/31 00:27:36;;;;;;;23.80;4.50;;;14.00;99.90;;;;;;5112968;27;20408;-74
2021/12/31 00:30:02;;;;;;;24.10;4.43;;;14.00;99.90;;;;;;5116992;27;20407;-75
2021/12/31 00:32:27;;;;;;;23.10;4.00;;;14.00;99.90;;;;;;5114088;27;20494;-74
2021/12/31 00:34:53;;;;;;;20.35;3.85;;;14.00;99.90;;;;;;5103554;27;20775;-76
2021/12/31 00:37:30;;;;;;;19.50;4.23;;;14.00;99.90;;;;;;5112495;27;20396;-73
2021/12/31 00:39:56;;;;;;;22.10;4.40;;;14.00;99.90;;;;;;5096583;28;20416;-76
2021/12/31 00:42:22;;;;;;;20.23;3.83;;;14.00;99.90;;;;;;5112600;27;20759;-75
2021/12/31 00:44:48;;;;;;;19.58;3.53;;;14.00;99.90;;;;;;5118162;27;20406;-75
2021/12/31 00:47:13;;;;;;;16.03;3.53;;;14.10;99.90;;;;;;5110999;27;20412;-76
2021/12/31 00:49:39;;;;;;;15.32;3.70;;;14.10;99.90;;;;;;5110906;27;20784;-74
2021/12/31 00:52:07;;;;;;;14.50;3.33;;;14.10;99.90;;;;;;5111208;27;20407;-73
2021/12/31 00:54:33;;;;;;;16.00;3.63;;;14.20;99.90;;;;;;5112362;27;20411;-76
2021/12/31 00:57:02;;;;;;;12.05;2.95;;;14.20;99.90;;;;;;5111714;27;20412;-75
2021/12/31 00:59:32;;;;;;;14.18;2.92;;;14.30;99.90;;;;;;5111837;27;20915;-74
2021/12/31 01:01:59;;;;;;;12.10;3.30;;;14.30;99.90;;;;;;5115489;27;20427;-75
2021/12/31 01:04:25;;;;;;;13.60;3.05;;;14.40;99.90;;;;;;5093580;28;20412;-74
2021/12/31 01:06:51;;;;;;;13.00;3.30;;;14.40;99.90;;;;;;5109608;27;20414;-75
2021/12/31 01:09:16;;;;;;;12.68;3.00;;;14.40;99.90;;;;;;5111896;27;20408;-76
2021/12/31 01:11:46;;;;;;;12.82;3.00;;;14.40;99.90;;;;;;5125975;27;20940;-74
2021/12/31 01:14:26;;;;;;;16.95;3.85;;;14.40;99.90;;;;;;5110217;27;20915;-77
2021/12/31 01:16:57;;;;;;;12.63;3.13;;;14.50;99.90;;;;;;5110076;27;20422;-74
2021/12/31 01:21:50;;;;;;;13.10;3.20;;;14.60;99.90;;;;;;5113936;27;20465;-77
2021/12/31 01:24:18;;;;;;;16.93;3.03;;;14.60;99.90;;;;;;5093148;27;20408;-76
2021/12/31 01:26:44;;;;;;;13.43;3.25;;;14.60;99.90;;;;;;5109490;27;20412;-73
2021/12/31 01:29:10;;;;;;;16.05;3.13;;;14.60;99.90;;;;;;5109831;28;20756;-75
2021/12/31 01:31:35;;;;;;;11.10;2.97;;;14.70;99.90;;;;;;5100687;27;20398;-75
2021/12/31 01:34:01;;;;;;;14.10;3.20;;;14.70;99.90;;;;;;5114397;27;21316;-75
2021/12/31 01:36:27;;;;;;;14.13;3.28;;;14.70;99.90;;;;;;5108665;27;20445;-76
2021/12/31 01:38:53;;;;;;;14.35;3.30;;;14.70;99.90;;;;;;5116482;27;20399;-74
2021/12/31 01:41:20;;;;;;;12.48;3.10;;;14.70;99.90;;;;;;5113357;27;20416;-77
2021/12/31 01:43:46;;;;;;;15.25;3.15;;;14.80;99.90;;;;;;5108978;27;20410;-74
2021/12/31 01:46:12;;;;;;;15.05;3.13;;;14.70;99.90;;;;;;5104344;28;20452;-75
2021/12/31 01:51:22;;;;;;;13.38;3.35;;;14.80;99.90;;;;;;5108148;27;21319;-73
2021/12/31 01:53:48;;;;;;;15.00;3.60;;;14.80;99.90;;;;;;5114775;27;20497;-74
2021/12/31 01:56:15;;;;;;;14.60;3.00;;;14.80;99.90;;;;;;5119117;27;20421;-75
2021/12/31 01:58:42;;;;;;;14.73;3.20;;;14.80;99.90;;;;;;5112530;27;20825;-76
2021/12/31 02:01:10;;;;;;;14.32;3.20;;;14.80;99.90;;;;;;5123749;27;20807;-74
2021/12/31 02:03:38;;;;;;;13.80;3.42;;;14.80;99.90;;;;;;5110200;28;20436;-75
2021/12/31 02:06:04;;;;;;;13.30;3.40;;;14.80;99.90;;;;;;5117907;27;20947;-74
2021/12/31 02:08:31;;;;;;;16.25;3.22;;;14.80;99.90;;;;;;5110802;28;20709;-76
2021/12/31 02:10:57;;;;;;;13.27;2.92;;;14.80;99.90;;;;;;5108896;27;20422;-76
2021/12/31 02:13:24;;;;;;;15.97;3.13;;;14.80;99.90;;;;;;5116237;27;20409;-74
2021/12/31 02:15:51;;;;;;;15.50;3.30;;;14.80;99.90;;;;;;5113871;27;20395;-74
2021/12/31 02:18:17;;;;;;;16.98;3.28;;;14.80;99.90;;;;;;5142107;27;20792;-75
2021/12/31 02:20:46;;;;;;;13.23;3.40;;;14.80;99.90;;;;;;5122437;27;20396;-76
2021/12/31 02:23:15;;;;;;;13.77;3.05;;;14.80;99.90;;;;;;5118160;27;20449;-75
2021/12/31 02:25:41;;;;;;;13.60;3.30;;;14.80;99.90;;;;;;5109340;27;20412;-75
2021/12/31 02:28:06;;;;;;;15.50;2.93;;;14.80;99.90;;;;;;5110079;27;20561;-74
2021/12/31 02:30:32;;;;;;;16.17;3.53;;;14.80;99.90;;;;;;5118363;27;20798;-76
2021/12/31 02:32:59;;;;;;;14.80;2.83;;;14.80;99.90;;;;;;5106726;28;20456;-75
2021/12/31 02:35:25;;;;;;;11.55;3.30;;;14.80;99.90;;;;;;5111719;27;20757;-73
2021/12/31 02:37:51;;;;;;;16.20;3.45;;;14.80;99.90;;;;;;5118964;27;20412;-76
2021/12/31 02:40:19;;;;;;;11.48;3.10;;;14.90;99.90;;;;;;5113766;27;20422;-74
2021/12/31 02:42:45;;;;;;;11.43;3.03;;;14.90;99.90;;;;;;5092038;28;20443;-75
2021/12/31 02:45:12;;;;;;;13.27;3.03;;;14.90;99.90;;;;;;5108866;28;20404;-75
2021/12/31 02:47:43;;;;;;;11.73;3.20;;;14.90;99.90;;;;;;5095429;28;21003;-75
2021/12/31 02:50:12;;;;;;;9.20;3.00;;;15.00;99.90;;;;;;5109353;27;20455;-76
2021/12/31 02:52:38;;;;;;;13.90;3.17;;;14.90;99.90;;;;;;5107704;27;20519;-73
2021/12/31 02:55:04;;;;;;;11.90;3.15;;;15.00;99.90;;;;;;5111546;27;20424;-75
2021/12/31 02:57:30;;;;;;;13.68;3.03;;;15.00;99.90;;;;;;5107810;27;20396;-75
2021/12/31 02:59:56;;;;;;;12.20;3.10;;;15.00;99.90;;;;;;5113265;27;20818;-76
2021/12/31 03:02:24;;;;;;;14.02;3.40;;;15.00;99.90;;;;;;5105937;27;21242;-75
2021/12/31 03:04:52;;;;;;;15.50;3.22;;;15.10;99.90;;;;;;5109550;28;20408;-76
2021/12/31 03:07:18;;;;;;;11.88;2.80;;;15.10;99.90;;;;;;5109928;27;20928;-74
2021/12/31 03:09:48;;;;;;;11.13;2.83;;;15.10;99.90;;;;;;5091628;28;20408;-76
2021/12/31 03:12:15;;;;;;;14.20;3.05;;;15.10;99.90;;;;;;5112726;27;20771;-74
2021/12/31 03:14:46;;;;;;;11.27;2.60;;;15.20;99.90;;;;;;5112332;27;20414;-76
2021/12/31 03:17:13;;;;;;;11.88;2.60;;;15.20;99.90;;;;;;5116946;27;20406;-76
2021/12/31 03:19:40;;;;;;;9.57;2.60;;;15.30;99.90;;;;;;5108420;28;20392;-73
2021/12/31 03:22:05;;;;;;;7.72;2.20;;;15.30;99.90;;;;;;5109302;27;20412;-75
2021/12/31 03:24:32;;;;;;;6.03;2.38;;;15.30;99.90;;;;;;5108837;27;20534;-76
2021/12/31 03:26:58;;;;;;;8.32;2.47;;;15.30;99.90;;;;;;5107470;28;20499;-73
2021/12/31 03:29:23;;;;;;;10.50;2.30;;;15.40;99.90;;;;;;5109274;28;20504;-75
2021/12/31 03:31:49;;;;;;;6.63;2.40;;;15.40;99.90;;;;;;5107445;28;20404;-77
2021/12/31 03:34:15;;;;;;;10.75;2.45;;;15.40;99.90;;;;;;5108975;28;20472;-76
2021/12/31 03:36:44;;;;;;;6.63;2.20;;;15.40;99.90;;;;;;5106741;28;20408;-76
2021/12/31 03:39:11;;;;;;;9.15;2.30;;;15.50;99.90;;;;;;5112546;28;20471;-73
2021/12/31 03:41:37;;;;;;;8.30;2.25;;;15.50;99.90;;;;;;5111184;28;20425;-75
2021/12/31 03:44:04;;;;;;;8.15;2.17;;;15.50;99.90;;;;;;5108882;28;20469;-76
2021/12/31 03:46:29;;;;;;;9.85;2.38;;;15.50;99.90;;;;;;5111863;28;20435;-75
2021/12/31 03:48:55;;;;;;;6.60;2.17;;;15.50;99.90;;;;;;5120701;28;20392;-73
2021/12/31 03:51:21;;;;;;;7.07;2.63;;;15.50;99.90;;;;;;5109748;28;20417;-73
2021/12/31 03:53:46;;;;;;;9.07;2.28;;;15.50;99.90;;;;;;5123409;28;20426;-73
2021/12/31 03:56:12;;;;;;;7.00;2.10;;;15.50;99.90;;;;;;5109313;28;20435;-75
2021/12/31 03:58:38;;;;;;;8.07;2.20;;;15.50;99.90;;;;;;5108535;28;20400;-73
2021/12/31 04:01:03;;;;;;;9.52;2.20;;;15.50;99.90;;;;;;5102957;28;20406;-75
2021/12/31 04:03:29;;;;;;;9.40;2.30;;;15.50;99.90;;;;;;5126906;27;20405;-76
2021/12/31 04:05:55;;;;;;;8.50;2.10;;;15.40;99.90;;;;;;5104385;28;20434;-74
2021/12/31 04:08:21;;;;;;;9.27;2.40;;;15.40;99.90;;;;;;5108991;28;20403;-76
2021/12/31 04:10:47;;;;;;;9.00;2.30;;;15.40;99.90;;;;;;5116485;28;20403;-75
2021/12/31 04:13:13;;;;;;;9.77;2.50;;;15.30;99.90;;;;;;5106187;28;20438;-75
2021/12/31 04:15:38;;;;;;;6.65;2.10;;;15.40;99.90;;;;;;5110989;28;20896;-77
2021/12/31 04:18:04;;;;;;;7.70;2.15;;;15.30;99.90;;;;;;5124067;28;20427;-74
2021/12/31 04:20:37;;;;;;;9.75;2.40;;;15.30;99.90;;;;;;5108273;28;20400;-73
2021/12/31 04:23:08;;;;;;;8.95;2.00;;;15.40;99.90;;;;;;5091019;28;20435;-76
2021/12/31 04:25:36;;;;;;;10.10;2.33;;;15.40;99.90;;;;;;5098433;28;20410;-76
2021/12/31 04:28:02;;;;;;;10.03;2.43;;;15.40;99.90;;;;;;5126346;27;20916;-75
2021/12/31 04:30:28;;;;;;;9.77;2.22;;;15.50;99.90;;;;;;5110099;27;20433;-75
2021/12/31 04:32:53;;;;;;;6.27;1.87;;;15.50;99.90;;;;;;5112110;27;20434;-74
2021/12/31 04:35:19;;;;;;;5.82;2.08;;;15.50;99.90;;;;;;5110829;28;20420;-74
2021/12/31 04:37:45;;;;;;;6.38;1.88;;;15.50;99.90;;;;;;5110925;27;20916;-75
2021/12/31 04:40:11;;;;;;;7.13;1.87;;;15.50;99.90;;;;;;5114656;27;20445;-74
2021/12/31 04:42:40;;;;;;;5.23;1.60;;;15.50;99.90;;;;;;5107683;28;20404;-74
2021/12/31 04:45:08;;;;;;;6.18;1.88;;;15.50;99.90;;;;;;5113138;27;20729;-76
2021/12/31 04:47:34;;;;;;;5.82;1.70;;;15.50;99.90;;;;;;5109102;27;20415;-76
2021/12/31 04:49:59;;;;;;;6.55;1.98;;;15.50;99.90;;;;;;5116970;27;20408;-74
2021/12/31 04:52:25;;;;;;;4.77;1.70;;;15.50;99.90;;;;;;5114185;27;20439;-74
2021/12/31 04:54:51;;;;;;;6.20;1.80;;;15.50;99.90;;;;;;5117755;27;20509;-76
2021/12/31 04:57:16;;;;;;;6.55;2.00;;;15.50;99.90;;;;;;5118479;27;20416;-76
2021/12/31 04:59:42;;;;;;;6.47;1.80;;;15.50;99.90;;;;;;5120418;27;20428;-73
2021/12/31 05:02:07;;;;;;;4.17;1.80;;;15.50;99.90;;;;;;5111369;27;20814;-76
2021/12/31 05:04:33;;;;;;;5.13;1.85;;;15.50;99.90;;;;;;5120344;27;20408;-75
2021/12/31 05:06:59;;;;;;;6.22;1.90;;;15.50;99.90;;;;;;5109377;27;20771;-74
2021/12/31 05:09:25;;;;;;;5.23;1.70;;;15.50;99.90;;;;;;5111316;27;20454;-75
2021/12/31 05:11:50;;;;;;;5.63;1.70;;;15.50;99.90;;;;;;5122347;27;20485;-75
2021/12/31 05:14:17;;;;;;;7.30;1.80;;;15.50;99.90;;;;;;5112120;27;20461;-75
2021/12/31 05:16:42;;;;;;;5.38;1.90;;;15.50;99.90;;;;;;5109723;27;20738;-73
2021/12/31 05:19:08;;;;;;;6.57;1.90;;;15.50;99.90;;;;;;5113848;27;20392;-75
2021/12/31 05:21:33;;;;;;;7.55;1.90;;;15.50;99.90;;;;;;5109070;27;20419;-74
2021/12/31 05:23:59;;;;;;;7.87;2.00;;;15.50;99.90;;;;;;5092520;28;21022;-73
2021/12/31 05:26:25;;;;;;;6.20;1.73;;;15.40;99.90;;;;;;5109564;28;20419;-71
2021/12/31 05:28:51;;;;;;;8.23;2.20;;;15.40;99.90;;;;;;5111263;28;20411;-75
2021/12/31 05:31:16;;;;;;;5.67;1.80;;;15.40;99.90;;;;;;5093632;27;20404;-73
2021/12/31 05:33:42;;;;;;;6.63;2.00;;;15.40;99.90;;;;;;5110894;27;20419;-76
2021/12/31 05:36:08;;;;;;;5.70;1.90;;;15.40;99.90;;;;;;5108029;28;20426;-74
2021/12/31 05:38:34;;;;;;;8.32;1.98;;;15.40;99.90;;;;;;5109216;27;20500;-74
2021/12/31 05:41:00;;;;;;;7.55;1.95;;;15.40;99.90;;;;;;5112801;27;20773;-74
2021/12/31 05:43:25;;;;;;;6.55;2.10;;;15.30;99.90;;;;;;5111740;27;20997;-76
2021/12/31 05:45:51;;;;;;;8.07;2.03;;;15.30;99.90;;;;;;5109902;27;20415;-75
2021/12/31 05:48:16;;;;;;;8.07;2.10;;;15.30;99.90;;;;;;5117704;27;20402;-76
2021/12/31 05:50:42;;;;;;;8.10;2.30;;;15.30;99.90;;;;;;5109311;28;20895;-75
2021/12/31 05:53:08;;;;;;;6.53;1.98;;;15.30;99.90;;;;;;5118995;27;20414;-74
2021/12/31 05:55:34;;;;;;;7.73;2.00;;;15.30;99.90;;;;;;5120253;27;20412;-75
2021/12/31 05:58:01;;;;;;;9.57;2.22;;;15.30;99.90;;;;;;5107850;27;21044;-74
2021/12/31 06:00:27;;;;;;;7.78;1.90;;;15.30;99.90;;;;;;5109219;27;20417;-75
2021/12/31 06:02:55;;;;;;;5.10;1.70;;;15.30;99.90;;;;;;5107220;27;20427;-75
2021/12/31 06:05:20;;;;;;;6.90;2.30;;;15.20;99.90;;;;;;5124117;27;20439;-74
2021/12/31 06:07:46;;;;;;;5.75;1.98;;;15.20;99.90;;;;;;5107691;27;21090;-75
2021/12/31 06:10:11;;;;;;;8.23;2.03;;;15.20;99.90;;;;;;5114992;27;20406;-75
2021/12/31 06:12:38;;;;;;;7.30;2.00;;;15.20;99.90;;;;;;5117803;27;20508;-75
2021/12/31 06:15:08;;;;;;;7.53;2.30;;;15.20;99.90;;;;;;5123274;27;20446;-75
2021/12/31 06:17:34;;;;;;;7.85;2.38;;;15.20;99.90;;;;;;5109452;27;20430;-76
2021/12/31 06:20:00;;;;;;;7.90;2.20;;;15.20;99.90;;;;;;5108776;28;20481;-75
2021/12/31 06:22:26;;;;;;;8.45;2.22;;;15.20;99.90;;;;;;5109149;27;20416;-74
2021/12/31 06:24:52;;;;;;;7.30;2.30;;;15.10;99.90;;;;;;5118083;27;20507;-75
2021/12/31 06:27:18;;;;;;;9.45;2.00;;;15.10;99.90;;;;;;5107004;28;20457;-72
2021/12/31 06:29:44;;;;;;;5.63;2.15;;;15.10;99.90;;;;;;5108123;28;20965;-73
2021/12/31 06:32:10;;;;;;;6.60;1.90;;;15.10;99.90;;;;;;5110302;27;20428;-75
2021/12/31 06:34:36;;;;;;;9.15;2.03;;;15.10;99.90;;;;;;5117178;27;20465;-74
2021/12/31 06:37:01;;;;;;;6.97;2.30;;;15.10;99.90;;;;;;5108035;27;20447;-73
2021/12/31 06:39:28;;;;;;;7.68;2.35;;;15.10;99.90;;;;;;5093408;28;20404;-73
2021/12/31 06:41:54;;;;;;;9.20;2.20;;;15.10;99.90;;;;;;5117318;27;20414;-73
2021/12/31 06:44:19;;;;;;;6.75;2.20;;;15.10;99.90;;;;;;5112935;27;20406;-73
2021/12/31 06:46:45;;;;;;;6.85;2.05;;;15.10;99.90;;;;;;5093353;28;20493;-73
2021/12/31 06:49:11;;;;;;;9.07;2.10;;;15.10;99.90;;;;;;5106420;28;20408;-73
2021/12/31 06:51:36;;;;;;;6.70;2.23;;;15.10;99.90;;;;;;5103824;28;20408;-73
2021/12/31 06:54:02;;;;;;;8.23;2.20;;;15.10;99.90;;;;;;5106335;28;20464;-74
2021/12/31 06:56:28;;;;;;;6.23;2.13;;;15.20;99.90;;;;;;5107690;27;20410;-74
2021/12/31 06:58:53;;;;;;;5.75;2.00;;;15.20;99.90;;;;;;5091586;27;20447;-73
2021/12/31 07:01:19;;;;;;;4.10;1.73;;;15.20;99.90;;;;;;5105531;27;20404;-74
2021/12/31 07:03:45;;;;;;;6.20;1.98;;;15.20;99.90;;;;;;5108159;28;20470;-74
2021/12/31 07:06:10;;;;;;;6.20;2.08;;;15.20;99.90;;;;;;5103200;28;20904;-74
2021/12/31 07:08:38;;;;;;;7.40;2.00;;;15.20;99.90;;;;;;5111197;27;20404;-74
2021/12/31 07:11:04;;;;;;;7.03;2.10;;;15.20;99.90;;;;;;5106215;28;20412;-74
2021/12/31 07:13:29;;;;;;;6.95;2.13;;;15.20;99.90;;;;;;5105812;27;20452;-74
2021/12/31 07:15:55;;;;;;;6.47;2.30;;;15.20;99.90;;;;;;5106644;28;20410;-73
2021/12/31 07:18:22;;;;;;;7.57;2.28;;;15.20;99.90;;;;;;5114396;27;20394;-72
2021/12/31 07:20:48;;;;;;;6.70;2.20;;;15.20;99.90;;;;;;5111378;27;20753;-74
2021/12/31 07:23:17;;;;;;;6.10;2.17;;;15.20;99.90;;;;;;5111463;27;20432;-74
2021/12/31 07:25:43;;;;;;;4.77;2.00;;;15.20;99.90;;;;;;5086721;28;20562;-74
2021/12/31 07:28:10;;;;;;;5.38;2.08;;;15.20;99.90;;;;;;5108972;28;20411;-73
2021/12/31 07:30:36;;;;;;;5.55;2.10;;;15.20;99.90;;;;;;5114878;27;20412;-72
2021/12/31 07:33:02;;;;;;;4.63;2.07;;;15.20;99.90;;;;;;5105329;28;20396;-74
2021/12/31 07:35:31;;;;;;;4.80;2.10;;;15.20;99.90;;;;;;5109081;28;20420;-73
2021/12/31 07:37:58;;;;;;;7.97;2.37;;;15.10;99.90;;;;;;5098447;28;20986;-74
2021/12/31 07:40:27;;;;;;;5.55;2.00;;;15.10;99.90;;;;;;5106861;28;21031;-74
2021/12/31 07:42:53;;;;;;;6.97;2.20;;;15.20;99.90;;;;;;5103202;28;20404;-71
2021/12/31 07:45:20;;;;;;;8.15;2.30;;;15.10;99.90;;;;;;5107045;28;20761;-72
2021/12/31 07:47:45;;;;;;;6.15;1.95;;;15.10;99.90;;;;;;5104050;28;20412;-71
2021/12/31 07:50:11;;;;;;;6.03;2.10;;;15.10;99.90;;;;;;5105510;28;20434;-72
2021/12/31 07:52:37;;;;;;;6.97;2.55;;;15.10;99.90;;;;;;5107043;28;20497;-72
2021/12/31 07:55:04;;;;;;;7.65;2.38;;;15.10;99.90;;;;;;5105565;28;20424;-71
2021/12/31 07:57:30;;;;;;;7.93;2.60;;;15.10;99.90;;;;;;5111448;27;20403;-73
2021/12/31 07:59:55;;;;;;;6.65;2.42;;;15.10;99.90;;;;;;5112974;27;20407;-73
2021/12/31 08:02:21;;;;;;;5.47;2.20;;;15.10;99.90;;;;;;5108954;28;20407;-74
2021/12/31 08:04:46;;;;;;;5.83;2.27;;;15.10;99.90;;;;;;5114656;27;20416;-74
2021/12/31 08:07:12;;;;;;;8.03;2.23;;;15.10;99.90;;;;;;5110189;28;20408;-75
2021/12/31 08:09:38;;;;;;;7.65;2.40;;;15.10;99.90;;;;;;5103723;28;20416;-73
2021/12/31 08:12:04;;;;;;;6.35;2.10;;;15.10;99.90;;;;;;5112960;27;20434;-73
2021/12/31 08:14:29;;;;;;;6.45;2.30;;;15.10;99.90;;;;;;5121642;27;20411;-74
2021/12/31 08:16:55;;;;;;;5.20;2.10;;;15.10;99.90;;;;;;5108728;27;20408;-74
2021/12/31 08:19:21;;;;;;;7.83;2.47;;;15.10;99.90;;;;;;5117425;27;21096;-72
2021/12/31 08:21:46;;;;;;;7.17;2.50;;;15.10;99.90;;;;;;5120252;27;20419;-73
2021/12/31 08:24:12;;;;;;;9.25;2.78;;;15.10;99.90;;;;;;5109048;28;20504;-74
2021/12/31 08:26:38;;;;;;;6.33;2.13;;;15.10;99.90;;;;;;5088775;28;20408;-73
2021/12/31 08:29:05;;;;;;;7.25;2.33;;;15.10;99.90;;;;;;5121508;27;20396;-75
2021/12/31 08:31:31;;;;;;;6.43;2.40;;;15.10;99.90;;;;;;5097385;28;20412;-74
2021/12/31 08:33:56;;;;;;;5.82;2.15;;;15.10;99.90;;;;;;5116778;27;20463;-74
2021/12/31 08:36:22;;;;;;;6.97;2.37;;;15.00;99.90;;;;;;5108762;27;20411;-73
2021/12/31 08:38:47;;;;;;;5.80;2.30;;;15.00;99.90;;;;;;5115414;27;20406;-74
2021/12/31 08:41:13;;;;;;;7.78;2.40;;;15.00;99.90;;;;;;5108190;27;20400;-72
2021/12/31 08:43:39;;;;;;;6.63;2.37;;;15.00;99.90;;;;;;5115060;27;20391;-73
2021/12/31 08:46:05;;;;;;;8.90;2.35;;;15.00;99.90;;;;;;5119392;27;20412;-74
2021/12/31 08:48:31;;;;;;;8.10;2.65;;;15.00;99.90;;;;;;5110242;28;20478;-74
2021/12/31 08:50:56;;;;;;;9.27;2.70;;;15.00;99.90;;;;;;5109864;27;20999;-75
2021/12/31 08:53:22;;;;;;;7.53;2.25;;;15.10;99.90;;;;;;5113503;27;20459;-73
2021/12/31 08:55:48;;;;;;;8.60;2.23;;;15.10;99.90;;;;;;5109094;28;20456;-74
2021/12/31 08:58:13;;;;;;;7.77;2.60;;;15.10;99.90;;;;;;5111971;27;20517;-74
2021/12/31 09:00:39;;;;;;;5.28;2.30;;;15.10;99.90;;;;;;5095082;28;20415;-71
2021/12/31 09:03:05;;;;;;;5.90;2.40;;;15.10;99.90;;;;;;5111974;27;20424;-73
2021/12/31 09:05:33;;;;;;;6.90;2.30;;;15.10;99.90;;;;;;5093755;28;20468;-73
2021/12/31 09:07:58;;;;;;;6.65;2.60;;;15.10;99.90;;;;;;5090677;28;20795;-74
2021/12/31 09:10:24;;;;;;;7.63;2.60;;;15.10;99.90;;;;;;5111224;28;20399;-74
2021/12/31 09:12:50;;;;;;;6.63;2.28;;;15.10;99.90;;;;;;5108006;27;20498;-72
2021/12/31 09:15:16;;;;;;;8.30;2.20;;;15.10;99.90;;;;;;5110607;27;20472;-73
2021/12/31 09:17:42;;;;;;;6.72;2.60;;;15.10;99.90;;;;;;5109244;28;20411;-72
2021/12/31 09:20:08;;;;;;;8.30;2.78;;;15.20;99.90;;;;;;5116265;27;20415;-74
2021/12/31 09:22:34;;;;;;;7.72;2.35;;;15.20;99.90;;;;;;5105880;28;20805;-74
2021/12/31 09:24:59;;;;;;;10.25;2.70;;;15.30;99.90;;;;;;5109111;28;20529;-75
2021/12/31 09:27:26;;;;;;;8.37;2.30;;;15.50;99.90;;;;;;5123130;27;20425;-73
2021/12/31 09:29:52;;;;;;;6.15;2.38;;;15.40;99.90;;;;;;5108659;28;20453;-73
2021/12/31 09:32:17;;;;;;;7.83;2.30;;;15.40;99.90;;;;;;5111036;27;20412;-73
2021/12/31 09:34:44;;;;;;;7.40;2.50;;;15.30;99.90;;;;;;5108614;28;20502;-74
2021/12/31 09:37:12;;;;;;;8.65;2.60;;;15.30;99.90;;;;;;5090599;28;20573;-74
2021/12/31 09:39:42;;;;;;;12.23;2.72;;;15.30;99.90;;;;;;5110251;27;20949;-73
2021/12/31 09:42:08;;;;;;;9.77;2.53;;;15.20;99.90;;;;;;5108467;28;20408;-74
2021/12/31 09:44:35;;;;;;;8.55;2.65;;;15.20;99.90;;;;;;5113905;27;20410;-75
2021/12/31 09:47:07;;;;;;;7.78;2.53;;;15.00;99.90;;;;;;5111812;27;20823;-77
2021/12/31 09:49:34;;;;;;;8.70;2.70;;;15.00;99.90;;;;;;5118233;27;20889;-74
2021/12/31 09:52:02;;;;;;;14.73;3.13;;;15.00;99.90;;;;;;5119397;27;20448;-75
2021/12/31 09:54:27;;;;;;;10.85;3.20;;;15.00;99.90;;;;;;5126375;27;20417;-73
2021/12/31 09:56:53;;;;;;;8.73;2.60;;;15.00;99.90;;;;;;5109660;27;20408;-74
2021/12/31 09:59:19;;;;;;;10.83;2.73;;;15.00;99.90;;;;;;5096279;27;20995;-74
2021/12/31 10:01:50;;;;;;;10.35;2.92;;;15.00;99.90;;;;;;5118979;27;20743;-75
2021/12/31 10:04:15;;;;;;;9.20;3.00;;;15.00;99.90;;;;;;5108080;28;20416;-74
2021/12/31 10:07:08;;;;;;;10.13;3.10;;;15.00;99.90;;;;;;5108126;28;20416;-74
2021/12/31 10:09:35;;;;;;;8.07;2.72;;;15.00;99.90;;;;;;5108268;27;20806;-75
2021/12/31 10:12:01;;;;;;;8.80;3.00;;;15.00;99.90;;;;;;5111196;27;20423;-74
2021/12/31 10:14:34;;;;;;;11.70;3.25;;;15.00;99.90;;;;;;5121467;27;20416;-73
2021/12/31 10:17:00;;;;;;;17.42;9.45;;;15.00;99.90;;;;;;5112910;27;20423;-74
2021/12/31 10:19:25;;;;;;;11.02;3.35;;;15.10;99.90;;;;;;5109159;27;20404;-73
2021/12/31 10:21:54;;;;;;;7.85;2.80;;;15.00;99.90;;;;;;5107790;28;20939;-72
2021/12/31 10:24:36;;;;;;;13.38;3.67;;;15.10;99.90;;;;;;5107326;28;20408;-74
2021/12/31 10:27:14;;;;;;;12.88;3.10;;;15.10;99.90;;;;;;5113355;27;20416;-72
2021/12/31 10:29:52;;;;;;;11.88;2.72;;;15.10;99.90;;;;;;5107434;27;20414;-72
2021/12/31 10:32:18;;;;;;;10.00;2.92;;;15.20;99.90;;;;;;5111135;27;20420;-73
2021/12/31 10:34:44;;;;;;;9.88;2.70;;;15.20;99.90;;;;;;5091285;28;20404;-72
2021/12/31 10:37:22;;;;;;;11.07;3.20;;;15.20;99.90;;;;;;5107104;28;20919;-72
2021/12/31 10:39:59;;;;;;;8.70;2.88;;;15.20;99.90;;;;;;5108580;28;20412;-75
2021/12/31 10:42:37;;;;;;;13.98;3.28;;;15.30;99.90;;;;;;5112611;27;20414;-72
2021/12/31 10:45:03;;;;;;;11.93;3.28;;;15.30;99.90;;;;;;5106473;28;20457;-71
2021/12/31 10:47:47;;;;;;;15.80;5.47;;;15.30;99.90;;;;;;5110529;27;20892;-75
2021/12/31 10:50:16;;;;;;;12.43;4.45;;;15.40;99.90;;;;;;5109212;27;20408;-72
2021/12/31 10:52:55;;;;;;;12.05;3.50;;;15.40;99.90;;;;;;5109522;27;20406;-71
2021/12/31 10:55:26;;;;;;;13.27;3.97;;;15.40;99.90;;;;;;5110491;27;20416;-72
2021/12/31 10:58:04;;;;;;;9.90;3.00;;;15.50;99.90;;;;;;5107730;28;20419;-73
2021/12/31 11:00:38;;;;;;;12.40;2.70;;;15.50;99.90;;;;;;5107386;28;20404;-73
2021/12/31 11:03:05;;;;;;;9.70;3.08;;;15.50;99.90;;;;;;5114473;27;20517;-73
2021/12/31 11:05:34;;;;;;;13.95;3.20;;;15.50;99.90;;;;;;5106265;28;20814;-74
2021/12/31 11:08:02;;;;;;;10.98;2.90;;;15.50;99.90;;;;;;5104968;28;20420;-71
2021/12/31 11:10:32;;;;;;;8.55;2.90;;;15.50;99.90;;;;;;5107146;28;20415;-72
2021/12/31 11:12:58;;;;;;;10.70;3.00;;;15.50;99.90;;;;;;5106444;28;20507;-72
2021/12/31 11:15:24;;;;;;;11.60;2.90;;;15.50;99.90;;;;;;5118343;27;21228;-72
2021/12/31 11:17:52;;;;;;;9.10;2.97;;;15.40;99.90;;;;;;5105785;28;20431;-73
2021/12/31 11:20:23;;;;;;;13.23;3.78;;;15.40;99.90;;;;;;5110902;27;20436;-72
2021/12/31 11:22:51;;;;;;;13.27;3.60;;;15.40;99.90;;;;;;5087041;28;20408;-71
2021/12/31 11:25:17;;;;;;;10.47;3.80;;;15.40;99.90;;;;;;5124325;27;20410;-73
2021/12/31 11:27:47;;;;;;;11.75;3.40;;;15.30;99.90;;;;;;5110009;27;20414;-74
2021/12/31 11:30:32;;;;;;;9.65;3.40;;;15.20;99.90;;;;;;5118211;27;20400;-70
2021/12/31 11:33:10;;;;;;;10.63;3.50;;;15.10;99.90;;;;;;5114774;28;20451;-73
2021/12/31 11:35:46;;;;;;;13.15;3.42;;;14.80;99.90;;;;;;5113857;28;20444;-70
2021/12/31 11:38:15;;;;;;;13.48;3.90;;;14.70;99.90;;;;;;5123961;28;20392;-73
2021/12/31 11:40:49;;;;;;;14.70;4.03;;;14.60;99.90;;;;;;5107220;28;20513;-71
2021/12/31 11:43:16;;;;;;;14.70;3.92;;;14.50;99.90;;;;;;5105979;28;20399;-72
2021/12/31 11:45:42;;;;;;;16.30;4.05;;;14.40;99.90;;;;;;5108828;28;20497;-72
2021/12/31 11:48:48;;;;;;;15.40;4.03;;;14.50;99.90;;;;;;5105203;28;20432;-72
2021/12/31 11:51:20;;;;;;;18.20;3.70;;;14.60;99.90;;;;;;5108144;28;20457;-74
2021/12/31 11:53:58;;;;;;;15.93;3.97;;;14.80;99.90;;;;;;5110224;28;20420;-72
2021/12/31 11:56:35;;;;;;;20.15;3.95;;;14.90;99.90;;;;;;5110046;28;20450;-75
2021/12/31 11:59:07;;;;;;;15.13;3.70;;;14.90;99.90;;;;;;5110490;28;20440;-73
2021/12/31 12:01:36;;;;;;;19.17;3.85;;;15.00;99.90;;;;;;5108450;27;20415;-73
2021/12/31 12:04:23;;;;;;;12.68;3.58;;;15.00;99.90;;;;;;5106454;28;20419;-74
2021/12/31 12:06:55;;;;;;;15.50;3.40;;;14.90;99.90;;;;;;5105048;28;20447;-73
2021/12/31 12:09:44;;;;;;;16.13;3.83;;;14.80;99.90;;;;;;5106510;28;20408;-72
2021/12/31 12:12:15;;;;;;;13.60;4.10;;;14.70;99.90;;;;;;5105812;28;20832;-71
2021/12/31 12:14:53;;;;;;;16.27;3.90;;;14.70;99.90;;;;;;5109760;28;20446;-72
2021/12/31 12:17:30;;;;;;;16.45;4.00;;;14.70;99.90;;;;;;5112569;28;20417;-71
2021/12/31 12:20:02;;;;;;;13.63;3.87;;;14.70;99.90;;;;;;5117647;28;20406;-74
2021/12/31 12:22:34;;;;;;;16.02;3.63;;;15.00;99.90;;;;;;5107648;27;20408;-70
2021/12/31 12:25:05;;;;;;;17.50;3.95;;;15.50;99.90;;;;;;5104797;28;20411;-72
2021/12/31 12:27:32;;;;;;;15.05;3.63;;;15.60;99.90;;;;;;5103263;28;20512;-72
2021/12/31 12:30:00;;;;;;;16.23;3.80;;;15.60;99.90;;;;;;5112837;28;20495;-72
2021/12/31 12:32:37;;;;;;;16.50;3.60;;;15.50;99.90;;;;;;5104210;28;20415;-71
2021/12/31 12:35:23;;;;;;;16.37;3.87;;;15.40;99.90;;;;;;5119476;28;20782;-70
2021/12/31 12:37:59;;;;;;;18.20;4.15;;;15.20;99.90;;;;;;5105678;28;20404;-69
2021/12/31 12:40:50;;;;;;;20.08;4.38;;;15.10;99.90;;;;;;5107247;28;20536;-73
2021/12/31 12:43:35;;;;;;;14.63;3.65;;;15.00;99.90;;;;;;5107067;28;20404;-71
2021/12/31 12:46:04;;;;;;;19.23;4.05;;;14.90;99.90;;;;;;5109695;28;20418;-73
2021/12/31 12:48:42;;;;;;;17.55;4.40;;;14.90;99.90;;;;;;5124279;27;20416;-73
2021/12/31 12:51:11;;;;;;;17.30;4.22;;;14.80;99.90;;;;;;5112305;27;20408;-72
2021/12/31 12:53:45;;;;;;;14.90;4.10;;;14.80;99.90;;;;;;5123063;27;20416;-75